Time;durP1;ratioP1;P1;durP2;ratioP2;P2;SDS_P1;SDS_P2;PMS_P1;PMS_P2;Temp;Humidity;BMP_temperature;BMP_pressure;BME280_temperature;BME280_humidity;BME280_pressure;Samples;Min_cycle;Max_cycle;Signal;HPM_P1;HPM_P2
2022/02/15 00:01:43;;;;;;;13.90;6.60;;;;;-0.10;97754.40;;;;110744;1250;42724;-59
2022/02/15 00:04:14;;;;;;;15.70;6.70;;;;;-0.10;97742.20;;;;110810;1250;41201;-57
2022/02/15 00:06:43;;;;;;;14.30;6.00;;;;;-0.10;97747.40;;;;110656;1250;41267;-59
2022/02/15 00:09:14;;;;;;;14.00;5.70;;;;;-0.10;97740.20;;;;110676;1250;41147;-58
2022/02/15 00:11:44;;;;;;;14.80;5.50;;;;;-0.10;97745.60;;;;110642;1250;41147;-58
2022/02/15 00:14:14;;;;;;;12.50;5.50;;;;;-0.10;97738.80;;;;110659;1253;41829;-58
2022/02/15 00:16:44;;;;;;;12.00;5.40;;;;;-0.18;97743.60;;;;110707;1251;41340;-58
2022/02/15 00:19:14;;;;;;;11.40;5.00;;;;;-0.20;97741.00;;;;110644;1253;41672;-62
2022/02/15 00:21:44;;;;;;;14.70;6.50;;;;;-0.20;97732.40;;;;110545;1253;41176;-60
2022/02/15 00:24:14;;;;;;;14.40;6.20;;;;;-0.26;97728.20;;;;110754;1250;42553;-63
2022/02/15 00:26:43;;;;;;;14.80;5.90;;;;;-0.30;97726.80;;;;110513;1253;41715;-63
2022/02/15 00:29:13;;;;;;;12.80;5.30;;;;;-0.30;97737.80;;;;110564;1250;41267;-63
2022/02/15 00:31:45;;;;;;;15.60;6.20;;;;;-0.30;97746.80;;;;110692;1250;41265;-65
2022/02/15 00:34:15;;;;;;;13.60;5.70;;;;;-0.40;97746.40;;;;110701;1250;42145;-65
2022/02/15 00:36:47;;;;;;;17.00;7.50;;;;;-0.40;97745.40;;;;110742;1251;41266;-57
2022/02/15 00:39:17;;;;;;;19.40;8.00;;;;;-0.60;97751.40;;;;110529;1253;41267;-57
2022/02/15 00:41:47;;;;;;;19.70;8.10;;;;;-0.60;97751.80;;;;110534;1253;41206;-59
2022/02/15 00:44:17;;;;;;;19.00;8.40;;;;;-0.70;97738.40;;;;110686;1250;41155;-59
2022/02/15 00:46:48;;;;;;;19.10;8.30;;;;;-0.80;97733.80;;;;110354;1254;41271;-59
2022/02/15 00:49:18;;;;;;;19.20;7.70;;;;;-0.88;97734.00;;;;110637;1253;41607;-58
2022/02/15 00:51:48;;;;;;;14.50;7.00;;;;;-0.90;97729.00;;;;110583;1252;41656;-58
2022/02/15 00:54:18;;;;;;;14.50;6.30;;;;;-0.90;97725.20;;;;110521;1252;41403;-62
2022/02/15 00:56:49;;;;;;;15.30;7.00;;;;;-0.90;97726.40;;;;110588;1253;41251;-58
2022/02/15 00:59:19;;;;;;;13.40;5.80;;;;;-1.00;97725.00;;;;110521;1252;42438;-58
2022/02/15 01:01:49;;;;;;;15.30;6.50;;;;;-1.00;97723.00;;;;110475;1253;41139;-62
2022/02/15 01:04:19;;;;;;;19.80;8.00;;;;;-1.00;97723.80;;;;110644;1252;41378;-56
2022/02/15 01:06:49;;;;;;;21.20;8.50;;;;;-1.10;97725.60;;;;110600;1253;41245;-55
2022/02/15 01:09:19;;;;;;;16.20;7.30;;;;;-1.10;97726.00;;;;110517;1253;41681;-64
2022/02/15 01:11:49;;;;;;;14.40;6.70;;;;;-1.14;97723.00;;;;110566;1254;41209;-58
2022/02/15 01:14:20;;;;;;;12.70;6.30;;;;;-1.20;97724.20;;;;110553;1253;41270;-57
2022/02/15 01:16:50;;;;;;;16.10;6.20;;;;;-1.20;97721.40;;;;110460;1254;41610;-58
2022/02/15 01:19:20;;;;;;;13.20;6.60;;;;;-1.20;97727.40;;;;110511;1253;41541;-57
2022/02/15 01:21:50;;;;;;;13.00;5.70;;;;;-1.20;97723.40;;;;110557;1253;41830;-57
2022/02/15 01:24:20;;;;;;;13.70;5.90;;;;;-1.20;97721.80;;;;110543;1253;43288;-58
2022/02/15 01:26:50;;;;;;;14.70;6.10;;;;;-1.20;97718.00;;;;110470;1253;41152;-58
2022/02/15 01:29:20;;;;;;;13.70;5.40;;;;;-1.20;97717.60;;;;110493;1253;41242;-60
2022/02/15 01:31:51;;;;;;;14.20;6.10;;;;;-1.20;97710.60;;;;110459;1253;41168;-56
2022/02/15 01:34:21;;;;;;;15.10;7.10;;;;;-1.20;97712.80;;;;110481;1254;41177;-59
2022/02/15 01:36:51;;;;;;;14.90;6.30;;;;;-1.20;97712.20;;;;110564;1253;41183;-64
2022/02/15 01:39:25;;;;;;;12.90;5.80;;;;;-1.22;97714.40;;;;110548;1253;41143;-65
2022/02/15 01:41:55;;;;;;;15.60;7.20;;;;;-1.30;97712.80;;;;110412;1253;41378;-64
2022/02/15 01:44:26;;;;;;;14.60;7.40;;;;;-1.30;97708.40;;;;110440;1254;41220;-64
2022/02/15 01:46:56;;;;;;;15.40;6.10;;;;;-1.30;97713.20;;;;110580;1252;41595;-58
2022/02/15 01:49:27;;;;;;;15.80;6.60;;;;;-1.40;97708.60;;;;110446;1254;41506;-56
2022/02/15 01:51:57;;;;;;;17.10;7.50;;;;;-1.40;97705.80;;;;110571;1253;41142;-57
2022/02/15 01:54:27;;;;;;;16.20;7.60;;;;;-1.40;97705.00;;;;110381;1253;41372;-58
2022/02/15 01:56:57;;;;;;;21.10;9.60;;;;;-1.40;97702.40;;;;110345;1254;41277;-58
2022/02/15 01:59:27;;;;;;;21.00;9.10;;;;;-1.40;97700.00;;;;110471;1252;41160;-57
2022/02/15 02:01:59;;;;;;;18.40;8.70;;;;;-1.40;97699.00;;;;110457;1253;41859;-57
2022/02/15 02:07:19;;;;;;;18.00;7.90;;;;;-1.46;97695.80;;;;110608;1251;41134;-58
2022/02/15 02:09:49;;;;;;;17.90;7.60;;;;;-1.48;97698.80;;;;110736;1253;40896;-59
2022/02/15 02:12:20;;;;;;;18.80;8.20;;;;;-1.50;97698.20;;;;110510;1253;41270;-63
2022/02/15 02:15:01;;;;;;;17.80;8.00;;;;;-1.50;97703.40;;;;110513;1253;41263;-57
2022/02/15 02:17:51;;;;;;;14.20;7.10;;;;;-1.50;97696.80;;;;110550;1254;41143;-58
2022/02/15 02:20:22;;;;;;;18.10;8.00;;;;;-1.50;97697.00;;;;110523;1253;41433;-58
2022/02/15 02:22:51;;;;;;;17.60;7.90;;;;;-1.52;97698.80;;;;110529;1253;41158;-60
2022/02/15 02:25:22;;;;;;;17.50;8.90;;;;;-1.58;97692.20;;;;110407;1253;41157;-59
2022/02/15 02:27:53;;;;;;;16.40;7.80;;;;;-1.60;97698.40;;;;110479;1253;41152;-58
2022/02/15 02:30:24;;;;;;;16.50;8.30;;;;;-1.60;97700.40;;;;110539;1253;41168;-57
2022/02/15 02:32:59;;;;;;;17.70;8.50;;;;;-1.60;97703.80;;;;110514;1253;42352;-57
2022/02/15 02:35:30;;;;;;;20.10;8.10;;;;;-1.60;97703.00;;;;110558;1253;42333;-57
2022/02/15 02:38:00;;;;;;;18.50;8.90;;;;;-1.60;97702.20;;;;110610;1251;41725;-59
2022/02/15 02:40:31;;;;;;;17.30;8.30;;;;;-1.60;97704.60;;;;110474;1253;41272;-57
2022/02/15 02:43:02;;;;;;;16.90;7.50;;;;;-1.60;97697.40;;;;110036;1253;453940;-61
2022/02/15 02:45:32;;;;;;;15.40;7.20;;;;;-1.60;97699.60;;;;110523;1253;41150;-64
2022/02/15 02:48:02;;;;;;;16.10;6.80;;;;;-1.60;97705.40;;;;110570;1253;41142;-59
2022/02/15 02:50:32;;;;;;;15.80;6.90;;;;;-1.60;97702.20;;;;110572;1253;41153;-58
2022/02/15 02:53:03;;;;;;;17.30;6.90;;;;;-1.60;97709.00;;;;110565;1253;41152;-63
2022/02/15 02:55:36;;;;;;;14.60;6.50;;;;;-1.60;97701.80;;;;110511;1250;41326;-63
2022/02/15 02:58:06;;;;;;;13.50;6.70;;;;;-1.60;97701.00;;;;110510;1253;41579;-58
2022/02/15 03:00:37;;;;;;;15.80;7.00;;;;;-1.60;97706.40;;;;110536;1250;41606;-61
2022/02/15 03:03:14;;;;;;;18.30;6.60;;;;;-1.60;97710.40;;;;110748;1250;41258;-59
2022/02/15 03:05:49;;;;;;;12.50;5.60;;;;;-1.60;97709.60;;;;110695;1250;41258;-57
2022/02/15 03:08:19;;;;;;;12.10;5.50;;;;;-1.60;97702.40;;;;110781;1250;41141;-59
2022/02/15 03:10:51;;;;;;;15.60;5.60;;;;;-1.60;97704.60;;;;110540;1253;41159;-57
2022/02/15 03:13:47;;;;;;;14.70;5.80;;;;;-1.60;97704.80;;;;110569;1253;41802;-59
2022/02/15 03:16:25;;;;;;;12.70;5.30;;;;;-1.60;97711.20;;;;110676;1250;42234;-65
2022/02/15 03:18:55;;;;;;;15.00;6.40;;;;;-1.60;97703.60;;;;110592;1253;41258;-58
2022/02/15 03:21:25;;;;;;;15.50;6.10;;;;;-1.60;97705.80;;;;110707;1253;41267;-58
2022/02/15 03:23:56;;;;;;;15.40;7.00;;;;;-1.60;97710.80;;;;110540;1253;41176;-58
2022/02/15 03:26:27;;;;;;;20.70;7.20;;;;;-1.56;97707.60;;;;110622;1253;41677;-58
2022/02/15 03:28:57;;;;;;;17.50;7.30;;;;;-1.50;97708.60;;;;110538;1253;41380;-57
2022/02/15 03:31:27;;;;;;;;;;;;;-1.52;97717.60;;;;110304;1254;41288;-58
2022/02/15 03:33:58;;;;;;;16.30;6.90;;;;;-1.60;97718.80;;;;110640;1253;42680;-58
2022/02/15 03:36:29;;;;;;;;;;;;;-1.60;97723.60;;;;110777;1251;41261;-64
2022/02/15 03:39:08;;;;;;;15.10;6.10;;;;;-1.60;97730.60;;;;110432;1253;41268;-61
2022/02/15 03:44:32;;;;;;;14.00;6.30;;;;;-1.60;97727.40;;;;110436;1253;41257;-59
2022/02/15 03:47:06;;;;;;;14.40;5.70;;;;;-1.70;97729.80;;;;110480;1253;41263;-58
2022/02/15 03:49:41;;;;;;;15.10;7.00;;;;;-1.70;97731.80;;;;110784;1251;41582;-63
2022/02/15 03:52:12;;;;;;;15.90;6.20;;;;;-1.70;97726.60;;;;110502;1253;41149;-64
2022/02/15 03:54:44;;;;;;;17.20;6.20;;;;;-1.70;97728.00;;;;110716;1251;41624;-62
2022/02/15 03:57:14;;;;;;;14.30;6.30;;;;;-1.76;97736.20;;;;110586;1253;41188;-58
2022/02/15 03:59:45;;;;;;;15.00;6.20;;;;;-1.80;97735.60;;;;110479;1253;41159;-62
2022/02/15 04:02:19;;;;;;;12.30;5.30;;;;;-1.80;97742.40;;;;110596;1253;41597;-62
2022/02/15 04:04:51;;;;;;;14.30;6.10;;;;;-1.70;97737.80;;;;110579;1253;41924;-63
2022/02/15 04:07:21;;;;;;;15.40;6.30;;;;;-1.72;97740.00;;;;110648;1253;41154;-67
2022/02/15 04:09:52;;;;;;;13.60;6.60;;;;;-1.80;97735.60;;;;110579;1253;41175;-60
2022/02/15 04:12:22;;;;;;;18.60;6.60;;;;;-1.80;97732.60;;;;110550;1251;41137;-58
2022/02/15 04:14:52;;;;;;;13.60;6.30;;;;;-1.90;97730.00;;;;110690;1250;41600;-59
2022/02/15 04:17:23;;;;;;;15.90;7.30;;;;;-1.90;97731.60;;;;110489;1253;42136;-59
2022/02/15 04:19:54;;;;;;;18.20;7.80;;;;;-1.90;97734.80;;;;110676;1252;41389;-57
2022/02/15 04:22:24;;;;;;;18.50;7.80;;;;;-1.88;97730.60;;;;110555;1253;41382;-59
2022/02/15 04:24:54;;;;;;;17.80;8.20;;;;;-1.80;97727.60;;;;110451;1253;41481;-58
2022/02/15 04:27:24;;;;;;;22.20;7.90;;;;;-1.80;97718.00;;;;110511;1253;41828;-56
2022/02/15 04:29:54;;;;;;;18.50;8.00;;;;;-1.70;97719.60;;;;110526;1253;41269;-55
2022/02/15 04:32:24;;;;;;;17.30;7.40;;;;;-1.70;97721.00;;;;110636;1252;41709;-55
2022/02/15 04:34:54;;;;;;;16.80;7.40;;;;;-1.70;97721.00;;;;110627;1252;42984;-59
2022/02/15 04:37:25;;;;;;;18.10;7.80;;;;;-1.76;97713.20;;;;110548;1253;41150;-58
2022/02/15 04:39:55;;;;;;;14.80;6.40;;;;;-1.80;97710.80;;;;110700;1252;42509;-64
2022/02/15 04:42:25;;;;;;;15.40;6.10;;;;;-1.80;97711.80;;;;110642;1249;41736;-65
2022/02/15 04:44:57;;;;;;;13.40;6.10;;;;;-1.80;97718.40;;;;110672;1253;41261;-58
2022/02/15 04:47:40;;;;;;;14.70;6.40;;;;;-1.80;97712.60;;;;110680;1251;41538;-64
2022/02/15 04:50:10;;;;;;;14.40;6.60;;;;;-1.90;97716.60;;;;110659;1253;41153;-59
2022/02/15 04:52:41;;;;;;;15.90;6.50;;;;;-1.90;97710.20;;;;110548;1253;41152;-61
2022/02/15 04:55:22;;;;;;;15.10;6.80;;;;;-1.90;97715.40;;;;110700;1251;41508;-63
2022/02/15 04:57:57;;;;;;;14.50;5.90;;;;;-1.90;97717.80;;;;110553;1251;41300;-60
2022/02/15 05:00:29;;;;;;;15.90;6.60;;;;;-1.90;97717.40;;;;110528;1253;41621;-57
2022/02/15 05:03:22;;;;;;;13.40;5.80;;;;;-1.90;97715.20;;;;110534;1253;41592;-59
2022/02/15 05:05:55;;;;;;;14.40;5.90;;;;;-1.90;97715.40;;;;110684;1253;41207;-58
2022/02/15 05:08:25;;;;;;;17.40;7.80;;;;;-1.90;97725.60;;;;110548;1253;41615;-64
2022/02/15 05:11:01;;;;;;;15.70;6.80;;;;;-1.90;97727.40;;;;110685;1253;41266;-63
2022/02/15 05:13:37;;;;;;;16.30;7.00;;;;;-1.90;97727.60;;;;110499;1252;41617;-62
2022/02/15 05:16:27;;;;;;;15.40;6.50;;;;;-1.90;97727.60;;;;110629;1253;41718;-58
2022/02/15 05:19:03;;;;;;;14.80;6.70;;;;;-1.90;97727.40;;;;110644;1253;41376;-59
2022/02/15 05:21:34;;;;;;;13.20;6.00;;;;;-1.80;97723.20;;;;110537;1253;41449;-64
2022/02/15 05:24:05;;;;;;;16.40;7.60;;;;;-1.72;97731.20;;;;110570;1253;41267;-66
2022/02/15 05:26:41;;;;;;;16.40;7.30;;;;;-1.70;97743.00;;;;110691;1250;41157;-65
2022/02/15 05:29:12;;;;;;;16.70;7.60;;;;;-1.80;97749.20;;;;110744;1252;41223;-61
2022/02/15 05:31:54;;;;;;;19.70;8.00;;;;;-1.76;97750.00;;;;110508;1253;41513;-67
2022/02/15 05:34:28;;;;;;;20.40;8.60;;;;;-1.70;97749.80;;;;110579;1253;41198;-66
2022/02/15 05:36:57;;;;;;;18.00;8.30;;;;;-1.66;97749.20;;;;110540;1253;41608;-58
2022/02/15 05:39:27;;;;;;;21.70;8.70;;;;;-1.60;97747.80;;;;110577;1253;41149;-63
2022/02/15 05:42:04;;;;;;;18.20;6.80;;;;;-1.50;97741.20;;;;110721;1250;41291;-57
2022/02/15 05:44:34;;;;;;;15.00;6.40;;;;;-1.50;97737.80;;;;110603;1253;41619;-58
2022/02/15 05:47:07;;;;;;;14.70;6.20;;;;;-1.50;97752.20;;;;110681;1253;41529;-58
2022/02/15 05:50:49;;;;;;;15.70;6.90;;;;;-1.40;97750.60;;;;110614;1251;41147;-58
2022/02/15 05:52:34;;;;;;;14.50;6.80;;;;;-1.30;97759.00;;;;110553;1253;41148;-58
2022/02/15 05:55:07;;;;;;;17.10;7.30;;;;;-1.30;97757.60;;;;110561;1251;41251;-57
2022/02/15 05:57:37;;;;;;;19.70;8.70;;;;;-1.30;97751.80;;;;110496;1252;41194;-58
2022/02/15 06:00:15;;;;;;;16.80;7.30;;;;;-1.22;97755.20;;;;110534;1253;41264;-60
2022/02/15 06:02:47;;;;;;;16.40;7.10;;;;;-1.18;97745.60;;;;110558;1253;41154;-58
2022/02/15 06:05:27;;;;;;;15.90;7.70;;;;;-1.10;97748.40;;;;110683;1251;41261;-65
2022/02/15 06:07:59;;;;;;;21.10;8.50;;;;;-1.00;97750.60;;;;110615;1254;41136;-64
2022/02/15 06:10:32;;;;;;;20.40;8.80;;;;;-0.90;97747.60;;;;110758;1252;41169;-59
2022/02/15 06:13:23;;;;;;;18.70;8.80;;;;;-0.74;97747.20;;;;110573;1251;41148;-65
2022/02/15 06:15:53;;;;;;;24.80;10.40;;;;;-0.60;97751.00;;;;110638;1254;41270;-60
2022/02/15 06:18:36;;;;;;;23.00;10.90;;;;;-0.40;97758.00;;;;110576;1253;41294;-62
2022/02/15 06:21:06;;;;;;;18.90;9.70;;;;;-0.20;97749.20;;;;110589;1253;41365;-59
2022/02/15 06:23:35;;;;;;;24.80;10.00;;;;;0.00;97755.40;;;;110580;1254;41188;-58
2022/02/15 06:26:09;;;;;;;23.00;10.70;;;;;0.20;97752.40;;;;110732;1251;41135;-59
2022/02/15 06:29:02;;;;;;;26.50;10.60;;;;;0.30;97760.20;;;;110634;1253;41190;-63
2022/02/15 06:31:39;;;;;;;25.90;10.60;;;;;0.40;97762.20;;;;110676;1251;41885;-64
2022/02/15 06:34:15;;;;;;;23.80;11.50;;;;;0.40;97762.60;;;;110640;1253;42162;-67
2022/02/15 06:36:44;;;;;;;26.00;11.10;;;;;0.50;97757.40;;;;110549;1254;42120;-63
2022/02/15 06:39:15;;;;;;;23.30;11.20;;;;;0.50;97752.60;;;;110651;1253;41159;-57
2022/02/15 06:41:47;;;;;;;27.30;12.40;;;;;0.56;97744.00;;;;110699;1253;41161;-57
2022/02/15 06:44:19;;;;;;;31.90;13.50;;;;;0.60;97737.00;;;;110578;1253;41685;-59
2022/02/15 06:46:50;;;;;;;25.60;13.40;;;;;0.70;97732.60;;;;110587;1254;41985;-61
2022/02/15 06:49:27;;;;;;;27.30;13.20;;;;;0.78;97727.20;;;;110518;1254;41227;-66
2022/02/15 06:52:35;;;;;;;25.50;12.40;;;;;0.90;97728.80;;;;110288;1257;42037;-61
2022/02/15 06:55:51;;;;;;;21.90;9.10;;;;;1.20;97728.80;;;;110590;1253;41162;-65
2022/02/15 06:58:25;;;;;;;22.60;9.90;;;;;1.50;97722.00;;;;110630;1254;41607;-62
2022/02/15 07:00:55;;;;;;;26.20;11.40;;;;;1.78;97722.40;;;;110395;1254;41149;-60
2022/02/15 07:03:26;;;;;;;21.60;9.10;;;;;2.00;97719.80;;;;110595;1254;41160;-65
2022/02/15 07:06:00;;;;;;;18.90;8.70;;;;;2.20;97715.20;;;;110373;1253;41154;-58
2022/02/15 07:08:30;;;;;;;20.90;9.10;;;;;2.60;97716.80;;;;110598;1254;41642;-63
2022/02/15 07:11:02;;;;;;;20.90;10.10;;;;;2.90;97709.40;;;;110590;1253;41144;-63
2022/02/15 07:13:35;;;;;;;28.50;12.60;;;;;3.28;97712.60;;;;110558;1251;41272;-62
2022/02/15 07:16:06;;;;;;;31.20;15.30;;;;;3.54;97709.40;;;;110825;1253;41177;-65
2022/02/15 07:18:42;;;;;;;37.50;17.20;;;;;3.76;97703.40;;;;110641;1251;41181;-63
2022/02/15 07:21:17;;;;;;;32.50;15.00;;;;;3.96;97693.80;;;;110562;1254;41435;-58
2022/02/15 07:24:11;;;;;;;38.30;17.40;;;;;4.20;97697.60;;;;110407;1251;41431;-62
2022/02/15 07:27:07;;;;;;;41.40;19.90;;;;;4.50;97688.60;;;;110472;1253;41263;-62
2022/02/15 07:29:49;;;;;;;49.30;22.80;;;;;4.88;97688.60;;;;110722;1251;41147;-62
2022/02/15 07:32:36;;;;;;;49.00;21.30;;;;;5.22;97680.00;;;;110500;1253;41406;-63
2022/02/15 07:35:09;;;;;;;33.70;17.30;;;;;5.60;97678.40;;;;110518;1253;41158;-56
2022/02/15 07:37:39;;;;;;;37.80;19.70;;;;;5.84;97675.40;;;;110537;1254;41155;-57
2022/02/15 07:40:09;;;;;;;33.10;16.80;;;;;6.00;97671.60;;;;110579;1253;41158;-62
2022/02/15 07:42:40;;;;;;;33.30;15.20;;;;;6.20;97666.20;;;;110521;1252;41398;-58
2022/02/15 07:45:18;;;;;;;32.80;17.90;;;;;6.40;97675.00;;;;110481;1254;41168;-57
2022/02/15 07:47:50;;;;;;;45.60;22.40;;;;;6.70;97677.00;;;;110574;1254;42407;-57
2022/02/15 07:50:22;;;;;;;33.60;17.20;;;;;6.80;97674.00;;;;110707;1251;42033;-58
2022/02/15 07:52:53;;;;;;;39.70;18.80;;;;;7.00;97668.20;;;;110785;1251;41189;-59
2022/02/15 07:55:24;;;;;;;39.40;19.80;;;;;7.26;97671.00;;;;110697;1251;41918;-58
2022/02/15 07:57:53;;;;;;;36.40;18.10;;;;;7.34;97673.80;;;;110752;1251;41972;-62
2022/02/15 08:00:22;;;;;;;41.40;19.80;;;;;7.26;97668.80;;;;110731;1251;41222;-62
2022/02/15 08:02:53;;;;;;;38.90;17.60;;;;;7.00;97680.60;;;;110698;1253;41152;-63
2022/02/15 08:05:24;;;;;;;40.90;17.40;;;;;6.74;97681.80;;;;110582;1253;41257;-62
2022/02/15 08:07:56;;;;;;;29.00;13.90;;;;;6.44;97681.40;;;;110303;1254;42379;-59
2022/02/15 08:10:26;;;;;;;22.90;12.40;;;;;6.32;97682.20;;;;110672;1253;41159;-63
2022/02/15 08:12:57;;;;;;;24.40;10.80;;;;;6.20;97682.20;;;;110734;1251;41144;-64
2022/02/15 08:15:30;;;;;;;22.40;9.70;;;;;6.50;97676.40;;;;110549;1253;41139;-56
2022/02/15 08:18:01;;;;;;;31.30;14.00;;;;;6.70;97670.80;;;;110738;1254;41144;-58
2022/02/15 08:20:31;;;;;;;27.50;12.60;;;;;6.60;97679.80;;;;110557;1254;41158;-57
2022/02/15 08:23:01;;;;;;;24.60;10.50;;;;;6.70;97675.00;;;;110411;1254;41186;-58
2022/02/15 08:25:31;;;;;;;24.40;11.10;;;;;6.92;97675.20;;;;110760;1251;42086;-62
2022/02/15 08:28:02;;;;;;;26.80;11.60;;;;;6.96;97677.80;;;;110715;1251;41653;-64
2022/02/15 08:30:33;;;;;;;26.40;10.40;;;;;7.20;97673.80;;;;110523;1254;41509;-63
2022/02/15 08:33:04;;;;;;;25.40;12.10;;;;;7.50;97675.20;;;;110656;1253;41170;-61
2022/02/15 08:35:34;;;;;;;23.80;10.10;;;;;7.60;97677.00;;;;110844;1250;41269;-59
2022/02/15 08:38:06;;;;;;;19.80;9.00;;;;;7.80;97668.20;;;;110571;1254;41970;-60
2022/02/15 08:40:38;;;;;;;26.00;9.20;;;;;8.00;97665.80;;;;110629;1254;41161;-63
2022/02/15 08:43:11;;;;;;;25.70;11.90;;;;;7.86;97662.60;;;;110543;1254;41615;-68
2022/02/15 08:45:44;;;;;;;26.10;12.60;;;;;7.18;97673.20;;;;110447;1254;41823;-63
2022/02/15 08:48:16;;;;;;;22.50;11.20;;;;;6.88;97678.20;;;;110565;1254;41194;-62
2022/02/15 08:50:47;;;;;;;27.00;12.30;;;;;6.56;97682.60;;;;110696;1253;41146;-67
2022/02/15 08:53:19;;;;;;;22.00;9.40;;;;;6.46;97681.60;;;;110603;1253;41437;-57
2022/02/15 08:55:54;;;;;;;23.30;9.50;;;;;6.54;97678.20;;;;110725;1253;41265;-62
2022/02/15 08:58:29;;;;;;;23.80;10.90;;;;;6.52;97681.00;;;;110413;1251;41164;-60
2022/02/15 09:01:04;;;;;;;20.50;9.20;;;;;6.50;97684.60;;;;110424;1251;41338;-62
2022/02/15 09:03:36;;;;;;;25.20;10.10;;;;;6.60;97679.00;;;;110483;1254;42083;-62
2022/02/15 09:06:10;;;;;;;22.40;9.30;;;;;6.70;97668.80;;;;110614;1253;41275;-62
2022/02/15 09:08:41;;;;;;;20.30;8.90;;;;;6.88;97667.00;;;;110549;1253;41134;-65
2022/02/15 09:11:11;;;;;;;;;;;;;7.08;97666.20;;;;110619;1254;42103;-64
2022/02/15 09:13:44;;;;;;;17.10;7.90;;;;;7.44;97668.20;;;;110463;1253;41594;-65
2022/02/15 09:16:17;;;;;;;20.60;8.40;;;;;7.78;97669.40;;;;110496;1254;41140;-61
2022/02/15 09:18:49;;;;;;;19.00;7.20;;;;;8.00;97670.80;;;;110534;1254;41176;-63
2022/02/15 09:21:21;;;;;;;16.60;7.80;;;;;8.30;97669.80;;;;110552;1253;41147;-66
2022/02/15 09:23:51;;;;;;;20.70;8.60;;;;;8.70;97662.40;;;;110603;1254;41938;-64
2022/02/15 09:26:32;;;;;;;20.70;8.40;;;;;8.96;97667.40;;;;110752;1251;41131;-64
2022/02/15 09:29:04;;;;;;;16.60;7.20;;;;;9.20;97660.80;;;;110336;1254;41173;-64
2022/02/15 09:31:37;;;;;;;18.60;7.70;;;;;9.34;97660.80;;;;110587;1251;41157;-62
2022/02/15 09:34:15;;;;;;;19.60;7.80;;;;;9.08;97660.40;;;;110406;1254;42046;-63
2022/02/15 09:36:46;;;;;;;17.30;8.30;;;;;8.86;97671.80;;;;110475;1251;41140;-64
2022/02/15 09:39:16;;;;;;;16.10;6.90;;;;;8.80;97669.20;;;;110628;1251;41717;-62
2022/02/15 09:41:48;;;;;;;23.60;10.00;;;;;8.90;97668.80;;;;110557;1254;42314;-66
2022/02/15 09:44:22;;;;;;;15.90;7.80;;;;;8.42;97676.20;;;;110588;1252;41158;-65
2022/02/15 09:46:55;;;;;;;15.60;6.60;;;;;8.48;97670.20;;;;110380;1251;41153;-63
2022/02/15 09:50:00;;;;;;;13.90;6.70;;;;;8.60;97664.60;;;;110502;1253;42161;-64
2022/02/15 09:52:34;;;;;;;13.30;6.00;;;;;8.80;97663.60;;;;110731;1253;41277;-66
2022/02/15 09:55:09;;;;;;;14.30;7.00;;;;;9.02;97658.00;;;;110442;1254;41314;-56
2022/02/15 09:57:42;;;;;;;15.40;6.90;;;;;9.20;97655.20;;;;110503;1253;41176;-64
2022/02/15 10:00:14;;;;;;;17.70;7.60;;;;;9.20;97650.60;;;;110558;1254;41153;-65
2022/02/15 10:02:50;;;;;;;15.80;6.80;;;;;9.10;97659.00;;;;110500;1254;42386;-60
2022/02/15 10:05:22;;;;;;;14.70;6.90;;;;;8.98;97657.40;;;;110428;1253;41151;-61
2022/02/15 10:07:57;;;;;;;16.10;6.50;;;;;9.00;97650.20;;;;110582;1251;41259;-62
2022/02/15 10:10:36;;;;;;;15.70;7.00;;;;;9.20;97647.00;;;;110550;1253;41324;-61
2022/02/15 10:13:14;;;;;;;13.70;6.00;;;;;9.40;97644.60;;;;110526;1251;41723;-60
2022/02/15 10:15:45;;;;;;;16.00;6.60;;;;;9.84;97636.60;;;;110595;1253;41939;-57
2022/02/15 10:18:29;;;;;;;14.50;6.20;;;;;10.08;97636.80;;;;110558;1254;41186;-60
2022/02/15 10:21:01;;;;;;;22.20;9.00;;;;;10.24;97635.20;;;;110406;1253;41632;-61
2022/02/15 10:23:34;;;;;;;20.10;9.00;;;;;9.80;97633.00;;;;110467;1254;41273;-62
2022/02/15 10:26:08;;;;;;;18.20;8.20;;;;;9.16;97637.20;;;;110438;1253;42552;-58
2022/02/15 10:28:38;;;;;;;19.10;8.00;;;;;9.02;97635.40;;;;110733;1251;40926;-64
2022/02/15 10:31:13;;;;;;;20.50;8.40;;;;;8.82;97633.60;;;;110604;1252;41955;-63
2022/02/15 10:33:49;;;;;;;16.80;7.60;;;;;8.56;97637.80;;;;110480;1253;41786;-59
2022/02/15 10:36:21;;;;;;;21.50;8.60;;;;;8.50;97636.80;;;;110463;1254;41798;-66
2022/02/15 10:38:53;;;;;;;16.60;7.30;;;;;8.40;97632.20;;;;110540;1254;40784;-64
2022/02/15 10:41:32;;;;;;;20.50;9.10;;;;;8.40;97631.40;;;;110456;1254;41618;-64
2022/02/15 10:44:15;;;;;;;18.50;8.30;;;;;8.14;97622.80;;;;110387;1253;41158;-58
2022/02/15 10:46:52;;;;;;;24.20;8.70;;;;;8.08;97626.20;;;;110454;1253;41173;-64
2022/02/15 10:49:25;;;;;;;21.10;8.40;;;;;8.04;97626.00;;;;110628;1254;41863;-60
2022/02/15 10:51:56;;;;;;;23.40;9.60;;;;;8.12;97620.00;;;;110516;1251;42030;-64
2022/02/15 10:54:26;;;;;;;;;;;;;8.00;97628.20;;;;110609;1253;41311;-57
2022/02/15 10:56:59;;;;;;;18.60;8.80;;;;;8.10;97623.40;;;;110609;1254;41618;-61
2022/02/15 10:59:33;;;;;;;20.20;9.20;;;;;8.08;97623.80;;;;110415;1254;41330;-63
2022/02/15 11:02:05;;;;;;;21.30;8.20;;;;;8.04;97626.20;;;;110670;1251;41286;-62
2022/02/15 11:04:37;;;;;;;21.50;10.30;;;;;8.00;97623.40;;;;110532;1251;41230;-65
2022/02/15 11:07:14;;;;;;;18.00;8.70;;;;;7.90;97622.60;;;;110488;1254;41145;-65
2022/02/15 11:10:20;;;;;;;18.00;8.60;;;;;8.00;97625.60;;;;110731;1254;41322;-64
2022/02/15 11:12:53;;;;;;;16.50;8.00;;;;;8.10;97629.40;;;;110503;1253;41155;-64
2022/02/15 11:15:30;;;;;;;17.20;7.20;;;;;8.16;97624.40;;;;110745;1251;42375;-62
2022/02/15 11:18:07;;;;;;;16.50;7.50;;;;;8.30;97620.80;;;;110714;1253;41284;-65
2022/02/15 11:20:54;;;;;;;19.20;7.60;;;;;8.40;97613.20;;;;110470;1251;41165;-66
2022/02/15 11:23:34;;;;;;;15.10;7.30;;;;;8.46;97611.40;;;;110352;1254;42224;-63
2022/02/15 11:26:17;;;;;;;18.70;8.80;;;;;8.42;97614.40;;;;110421;1251;41164;-67
2022/02/15 11:28:53;;;;;;;16.50;7.80;;;;;8.50;97613.20;;;;110589;1251;41188;-64
2022/02/15 11:31:30;;;;;;;18.80;7.70;;;;;8.68;97600.40;;;;110531;1254;41190;-64
2022/02/15 11:34:06;;;;;;;16.50;7.50;;;;;8.78;97600.60;;;;110637;1253;41176;-65
2022/02/15 11:36:47;;;;;;;17.70;6.60;;;;;8.90;97595.40;;;;110532;1251;41720;-66
2022/02/15 11:39:26;;;;;;;18.90;7.70;;;;;9.36;97590.80;;;;110542;1251;41154;-64
2022/02/15 11:42:00;;;;;;;17.70;7.20;;;;;10.02;97586.60;;;;110606;1253;41043;-65
2022/02/15 11:44:36;;;;;;;17.30;7.50;;;;;10.96;97579.00;;;;110525;1253;42089;-63
2022/02/15 11:47:25;;;;;;;16.90;8.00;;;;;12.62;97565.40;;;;110532;1253;41324;-68
2022/02/15 11:49:55;;;;;;;15.60;7.10;;;;;15.10;97551.20;;;;110589;1253;41632;-60
2022/02/15 11:52:26;;;;;;;15.30;6.80;;;;;17.12;97532.80;;;;110657;1250;41663;-62
2022/02/15 11:55:14;;;;;;;15.80;6.80;;;;;19.12;97531.00;;;;110717;1253;41643;-64
2022/02/15 11:57:46;;;;;;;16.70;6.20;;;;;21.84;97510.00;;;;110754;1250;41224;-61
2022/02/15 12:00:15;;;;;;;13.50;7.10;;;;;24.26;97521.60;;;;110790;1251;41264;-63
2022/02/15 12:02:54;;;;;;;13.10;6.20;;;;;22.68;97525.00;;;;110743;1251;41192;-63
2022/02/15 12:05:28;;;;;;;13.50;6.50;;;;;22.06;97532.20;;;;110520;1251;41645;-64
2022/02/15 12:07:58;;;;;;;13.10;6.20;;;;;19.44;97537.80;;;;110523;1251;41378;-60
2022/02/15 12:10:43;;;;;;;13.80;5.80;;;;;18.56;97540.80;;;;110654;1251;41154;-62
2022/02/15 12:13:17;;;;;;;11.00;5.10;;;;;18.10;97537.00;;;;110734;1251;41157;-62
2022/02/15 12:15:48;;;;;;;13.50;6.10;;;;;17.82;97528.20;;;;110897;1251;41103;-61
2022/02/15 12:18:30;;;;;;;12.60;5.80;;;;;17.88;97536.40;;;;110564;1253;41142;-63
2022/02/15 12:21:02;;;;;;;14.00;7.10;;;;;16.96;97539.40;;;;110782;1250;41142;-64
2022/02/15 12:23:38;;;;;;;14.50;6.50;;;;;16.40;97540.40;;;;110738;1251;41171;-58
2022/02/15 12:26:39;;;;;;;14.40;6.50;;;;;15.68;97541.60;;;;110605;1251;41629;-63
2022/02/15 12:29:10;;;;;;;13.70;6.80;;;;;15.60;97536.80;;;;110604;1251;41160;-59
2022/02/15 12:31:39;;;;;;;14.60;6.50;;;;;15.60;97535.60;;;;110708;1250;41632;-59
2022/02/15 12:34:12;;;;;;;14.20;6.40;;;;;16.34;97525.20;;;;110750;1251;41156;-60
2022/02/15 12:36:42;;;;;;;14.40;6.40;;;;;18.38;97524.00;;;;110810;1251;41710;-65
2022/02/15 12:39:13;;;;;;;16.40;8.80;;;;;20.68;97499.80;;;;110556;1251;40767;-64